createdAt,value
2018-05-07T00:00:37.197Z,0.00
2018-05-07T00:01:37.180Z,0.00
2018-05-07T00:02:37.230Z,0.00
2018-05-07T00:03:37.178Z,0.00
2018-05-07T00:04:37.185Z,0.00
2018-05-07T00:05:37.170Z,0.00
2018-05-07T00:06:37.163Z,0.00
2018-05-07T00:07:37.161Z,0.00
2018-05-07T00:08:37.153Z,0.00
2018-05-07T00:09:37.189Z,0.00
2018-05-07T00:10:37.144Z,0.00
2018-05-07T00:11:37.168Z,0.00
2018-05-07T00:12:37.140Z,0.00
2018-05-07T00:13:37.127Z,0.00
2018-05-07T00:14:37.149Z,0.00
2018-05-07T00:15:37.198Z,0.00
2018-05-07T00:16:37.126Z,0.00
2018-05-07T00:17:37.120Z,0.00
2018-05-07T00:18:37.096Z,0.00
2018-05-07T00:19:37.101Z,0.00
2018-05-07T00:20:37.197Z,0.00
2018-05-07T00:21:37.107Z,0.00
2018-05-07T00:22:37.118Z,0.00
2018-05-07T00:23:37.091Z,0.00
2018-05-07T00:24:37.090Z,0.00
2018-05-07T00:25:37.076Z,0.00
2018-05-07T00:26:37.138Z,0.00
2018-05-07T00:27:37.067Z,0.00
2018-05-07T00:28:37.063Z,0.00
2018-05-07T00:29:37.060Z,0.00
2018-05-07T00:30:37.064Z,0.00
2018-05-07T00:31:37.080Z,0.00
2018-05-07T00:32:37.044Z,0.00
2018-05-07T00:33:37.043Z,0.00
2018-05-07T00:34:37.038Z,0.00
2018-05-07T00:35:37.035Z,0.00
2018-05-07T00:36:37.062Z,0.00
2018-05-07T00:37:37.017Z,0.00
2018-05-07T00:38:37.013Z,0.00
2018-05-07T00:39:37.013Z,0.00
2018-05-07T00:40:37.009Z,0.00
2018-05-07T00:41:37.001Z,0.00
2018-05-07T00:42:37.001Z,0.00
2018-05-07T00:43:36.993Z,0.00
2018-05-07T00:44:36.999Z,0.00
2018-05-07T00:45:36.996Z,0.00
2018-05-07T00:46:36.989Z,0.00
2018-05-07T00:47:36.990Z,0.00
2018-05-07T00:48:36.987Z,0.00
2018-05-07T00:49:36.977Z,0.00
2018-05-07T00:50:36.973Z,0.00
2018-05-07T00:51:36.961Z,0.00
2018-05-07T00:52:36.978Z,0.00
2018-05-07T00:53:36.965Z,0.00
2018-05-07T00:54:36.953Z,0.00
2018-05-07T00:55:36.958Z,0.00
2018-05-07T00:56:36.946Z,0.00
2018-05-07T00:57:36.940Z,0.00
2018-05-07T00:58:36.931Z,0.00
2018-05-07T00:59:36.932Z,0.00
2018-05-07T01:00:36.933Z,0.00
2018-05-07T01:01:36.917Z,0.00
2018-05-07T01:02:36.916Z,0.00
2018-05-07T01:03:36.902Z,0.00
2018-05-07T01:04:36.907Z,0.00
2018-05-07T01:05:36.903Z,0.00
2018-05-07T01:06:36.900Z,0.00
2018-05-07T01:07:36.894Z,0.00
2018-05-07T01:08:36.885Z,0.00
2018-05-07T01:09:36.879Z,0.00
2018-05-07T01:10:36.874Z,0.00
2018-05-07T01:11:36.875Z,0.00
2018-05-07T01:12:36.860Z,0.00
2018-05-07T01:13:37.361Z,0.00
2018-05-07T01:14:37.375Z,0.00
2018-05-07T01:15:37.372Z,0.00
2018-05-07T01:17:36.849Z,0.00
2018-05-07T01:18:36.854Z,0.00
2018-05-07T01:19:36.867Z,0.00
2018-05-07T01:20:36.841Z,0.00
2018-05-07T01:21:36.829Z,0.00
2018-05-07T01:22:36.839Z,0.00
2018-05-07T01:23:57.825Z,0.00
2018-05-07T01:24:36.849Z,0.00
2018-05-07T01:25:36.812Z,0.00
2018-05-07T01:26:36.829Z,0.00
2018-05-07T01:27:36.804Z,0.00
2018-05-07T01:28:36.814Z,0.00
2018-05-07T01:29:57.805Z,0.00
2018-05-07T02:02:00.910Z,0.00
2018-05-07T02:03:00.880Z,0.00
2018-05-07T02:04:53.749Z,0.00
2018-05-07T02:05:53.738Z,0.00
2018-05-07T02:07:46.650Z,0.00
2018-05-07T02:08:46.604Z,0.00
2018-05-07T02:10:39.567Z,0.00
2018-05-07T02:11:39.546Z,0.00
2018-05-07T02:13:32.500Z,0.00
2018-05-07T02:14:32.471Z,0.00
2018-05-07T02:16:25.378Z,0.00
2018-05-07T02:17:25.363Z,0.00
2018-05-07T02:19:18.295Z,0.00
2018-05-07T02:20:18.274Z,0.00
2018-05-07T02:22:11.186Z,0.00
2018-05-07T02:23:11.167Z,0.00
2018-05-07T02:25:04.110Z,0.00
2018-05-07T02:26:04.084Z,0.00
2018-05-07T02:27:57.002Z,0.00
2018-05-07T02:28:56.977Z,0.00
2018-05-07T02:30:49.908Z,0.00
2018-05-07T02:31:49.894Z,0.00
2018-05-07T02:33:42.803Z,0.00
2018-05-07T02:34:42.787Z,0.00
2018-05-07T02:36:36.739Z,0.00
2018-05-07T02:37:36.727Z,0.00
2018-05-07T02:39:29.634Z,0.00
2018-05-07T02:40:29.612Z,0.00
2018-05-07T02:42:22.644Z,0.00
2018-05-07T02:43:22.528Z,0.00
2018-05-07T02:45:15.448Z,0.00
2018-05-07T02:46:15.432Z,0.00
2018-05-07T02:48:08.364Z,0.00
2018-05-07T02:49:08.356Z,0.00
2018-05-07T02:51:01.241Z,0.00
2018-05-07T02:52:01.219Z,0.00
2018-05-07T02:53:54.178Z,0.00
2018-05-07T02:54:54.143Z,0.00
2018-05-07T02:56:47.037Z,0.00
2018-05-07T02:57:47.018Z,0.00
2018-05-07T02:59:39.946Z,0.00
2018-05-07T03:00:39.917Z,0.00
2018-05-07T03:02:32.814Z,0.00
2018-05-07T03:03:32.798Z,0.00
2018-05-07T03:05:25.706Z,0.00
2018-05-07T03:06:25.679Z,0.00
2018-05-07T03:08:18.626Z,0.00
2018-05-07T03:09:18.612Z,0.00
2018-05-07T03:11:11.508Z,0.00
2018-05-07T03:12:11.500Z,0.00
2018-05-07T03:14:04.424Z,0.00
2018-05-07T03:15:04.414Z,0.00
2018-05-07T03:16:57.315Z,4.00
2018-05-07T03:17:57.292Z,4.00
2018-05-07T03:19:50.235Z,0.00
2018-05-07T03:20:50.222Z,4.00
2018-05-07T03:22:43.121Z,4.00
2018-05-07T03:23:43.097Z,4.00
2018-05-07T03:25:36.049Z,4.00
2018-05-07T03:26:36.027Z,8.00
2018-05-07T03:28:28.918Z,8.00
2018-05-07T03:29:28.904Z,12.00
2018-05-07T03:31:21.849Z,12.00
2018-05-07T03:32:21.827Z,16.00
2018-05-07T03:35:05.686Z,28.00
2018-05-07T03:36:05.665Z,28.00
2018-05-07T03:37:58.579Z,44.00
2018-05-07T03:38:58.559Z,48.00
2018-05-07T03:40:51.514Z,64.00
2018-05-07T03:41:51.485Z,72.00
2018-05-07T03:43:44.375Z,92.00
2018-05-07T03:44:44.368Z,104.00
2018-05-07T03:46:37.314Z,132.00
2018-05-07T03:47:37.294Z,148.00
2018-05-07T03:49:30.183Z,184.00
2018-05-07T03:50:30.167Z,204.00
2018-05-07T03:52:23.087Z,244.00
2018-05-07T03:53:23.063Z,272.00
2018-05-07T03:55:15.968Z,324.00
2018-05-07T03:56:15.949Z,352.00
2018-05-07T03:58:08.861Z,416.00
2018-05-07T03:59:08.833Z,452.00
2018-05-07T04:01:01.767Z,524.00
2018-05-07T04:02:01.759Z,564.00
2018-05-07T04:03:54.652Z,644.00
2018-05-07T04:04:54.617Z,692.00
2018-05-07T04:06:47.567Z,780.00
2018-05-07T04:07:47.551Z,828.00
2018-05-07T04:09:40.499Z,928.00
2018-05-07T04:10:40.490Z,984.00
2018-05-07T04:12:33.471Z,1088.00
2018-05-07T04:13:33.421Z,1144.00
2018-05-07T04:15:26.327Z,1252.00
2018-05-07T04:16:26.309Z,1312.00
2018-05-07T04:18:19.252Z,1424.00
2018-05-07T04:19:19.244Z,1484.00
2018-05-07T04:21:12.143Z,1588.00
2018-05-07T04:22:12.128Z,1648.00
2018-05-07T04:24:05.109Z,1756.00
2018-05-07T04:25:05.087Z,1816.00
2018-05-07T04:26:58.014Z,1920.00
2018-05-07T04:27:58.001Z,1980.00
2018-05-07T04:29:50.918Z,2092.00
2018-05-07T04:30:50.899Z,2144.00
2018-05-07T04:32:43.858Z,2256.00
2018-05-07T04:33:43.884Z,2312.00
2018-05-07T04:35:36.825Z,2420.00
2018-05-07T04:36:36.802Z,2476.00
2018-05-07T04:38:29.771Z,2584.00
2018-05-07T04:39:29.755Z,2640.00
2018-05-07T04:41:22.730Z,2740.00
2018-05-07T04:42:22.707Z,2800.00
2018-05-07T04:44:15.684Z,2904.00
2018-05-07T04:45:15.661Z,2960.00
2018-05-07T04:47:08.633Z,3068.00
2018-05-07T04:48:08.617Z,3136.00
2018-05-07T04:50:01.620Z,3244.00
2018-05-07T04:51:01.590Z,3308.00
2018-05-07T04:52:54.638Z,3424.00
2018-05-07T04:53:54.626Z,3360.00
2018-05-07T04:55:47.547Z,3456.00
2018-05-07T04:56:47.530Z,3496.00
2018-05-07T04:58:40.422Z,3588.00
2018-05-07T04:59:40.427Z,3632.00
2018-05-07T05:01:33.340Z,3728.00
2018-05-07T05:02:33.319Z,3780.00
2018-05-07T05:05:17.317Z,3920.00
2018-05-07T05:06:17.319Z,3976.00
2018-05-07T05:08:10.243Z,4076.00
2018-05-07T05:09:10.186Z,4120.00
2018-05-07T05:11:03.092Z,4204.00
2018-05-07T05:12:03.069Z,4252.00
2018-05-07T05:13:55.972Z,4336.00
2018-05-07T05:14:55.960Z,4384.00
2018-05-07T05:16:48.981Z,4472.00
2018-05-07T05:17:48.959Z,4516.00
2018-05-07T05:19:41.851Z,4604.00
2018-05-07T05:20:41.835Z,4652.00
2018-05-07T05:22:34.795Z,4748.00
2018-05-07T05:23:34.769Z,4796.00
2018-05-07T05:25:27.731Z,4892.00
2018-05-07T05:26:27.713Z,4948.00
2018-05-07T05:28:20.667Z,5040.00
2018-05-07T05:29:20.634Z,5516.00
2018-05-07T05:31:13.524Z,5628.00
2018-05-07T05:32:13.499Z,5684.00
2018-05-07T05:34:06.395Z,5784.00
2018-05-07T05:35:06.381Z,5840.00
2018-05-07T05:36:59.294Z,5948.00
2018-05-07T05:37:59.277Z,6000.00
2018-05-07T05:39:52.188Z,6100.00
2018-05-07T05:40:52.145Z,6152.00
2018-05-07T05:42:45.067Z,6248.00
2018-05-07T05:43:45.151Z,6300.00
2018-05-07T05:45:37.957Z,6392.00
2018-05-07T05:46:37.942Z,6448.00
2018-05-07T05:48:30.859Z,6552.00
2018-05-07T05:49:30.822Z,6604.00
2018-05-07T05:51:23.759Z,6696.00
2018-05-07T05:52:23.722Z,6740.00
2018-05-07T05:54:16.750Z,6840.00
2018-05-07T05:55:16.747Z,6892.00
2018-05-07T05:57:09.642Z,6992.00
2018-05-07T05:58:09.627Z,7040.00
2018-05-07T06:00:02.552Z,7136.00
2018-05-07T06:01:02.523Z,7176.00
2018-05-07T06:02:55.460Z,7264.00
2018-05-07T06:03:55.528Z,7332.00
2018-05-07T06:05:48.361Z,7396.00
2018-05-07T06:06:48.342Z,7444.00
2018-05-07T06:07:48.329Z,7484.00
2018-05-07T06:08:48.326Z,7536.00
2018-05-07T06:09:48.325Z,7656.00
2018-05-07T06:10:48.350Z,7636.00
2018-05-07T06:11:48.316Z,7700.00
2018-05-07T06:12:48.316Z,7744.00
2018-05-07T06:13:48.307Z,7800.00
2018-05-07T06:14:48.325Z,7844.00
2018-05-07T06:15:48.306Z,7900.00
2018-05-07T06:16:48.299Z,7928.00
2018-05-07T06:17:48.293Z,7968.00
2018-05-07T06:18:48.295Z,8016.00
2018-05-07T06:19:48.289Z,8052.00
2018-05-07T06:20:48.293Z,8084.00
2018-05-07T06:21:48.283Z,8124.00
2018-05-07T06:22:48.282Z,8156.00
2018-05-07T06:23:48.279Z,8204.00
2018-05-07T06:24:48.275Z,8240.00
2018-05-07T06:25:48.271Z,8276.00
2018-05-07T06:26:48.284Z,8312.00
2018-05-07T06:27:48.287Z,8344.00
2018-05-07T06:28:48.261Z,8380.00
2018-05-07T06:29:48.260Z,8412.00
2018-05-07T06:30:48.257Z,8492.00
2018-05-07T06:31:48.251Z,8496.00
2018-05-07T06:32:48.261Z,8524.00
2018-05-07T06:33:48.246Z,8572.00
2018-05-07T06:34:48.234Z,8608.00
2018-05-07T06:35:48.235Z,8672.00
2018-05-07T06:36:48.239Z,8692.00
2018-05-07T06:37:48.236Z,8736.00
2018-05-07T06:38:48.231Z,8776.00
2018-05-07T06:39:48.233Z,8804.00
2018-05-07T06:40:48.225Z,8840.00
2018-05-07T06:41:48.213Z,8880.00
2018-05-07T06:42:48.222Z,8916.00
2018-05-07T06:43:48.214Z,8956.00
2018-05-07T06:44:48.216Z,8996.00
2018-05-07T06:45:48.225Z,9032.00
2018-05-07T06:46:48.207Z,9068.00
2018-05-07T06:47:48.223Z,9104.00
2018-05-07T06:48:48.207Z,9132.00
2018-05-07T06:49:48.201Z,9164.00
2018-05-07T06:50:48.202Z,9184.00
2018-05-07T06:51:48.196Z,9232.00
2018-05-07T06:52:48.193Z,9264.00
2018-05-07T06:53:48.197Z,9292.00
2018-05-07T06:54:48.189Z,9332.00
2018-05-07T06:55:48.191Z,9364.00
2018-05-07T06:56:48.187Z,9388.00
2018-05-07T06:57:48.182Z,9428.00
2018-05-07T06:58:48.179Z,9448.00
2018-05-07T06:59:48.184Z,9476.00
2018-05-07T07:00:48.177Z,9508.00
2018-05-07T07:01:48.172Z,9536.00
2018-05-07T07:02:48.446Z,9568.00
2018-05-07T07:03:48.171Z,9608.00
2018-05-07T07:04:48.168Z,9648.00
2018-05-07T07:05:48.178Z,9728.00
2018-05-07T07:06:48.154Z,10012.00
2018-05-07T07:07:48.166Z,10624.00
2018-05-07T07:08:48.164Z,11428.00
2018-05-07T07:09:48.155Z,12840.00
2018-05-07T07:10:48.151Z,25440.00
2018-05-07T07:11:48.153Z,39136.00
2018-05-07T07:12:48.148Z,40064.00
2018-05-07T07:13:48.148Z,40160.00
2018-05-07T07:14:48.146Z,42336.00
2018-05-07T07:15:48.146Z,45792.00
2018-05-07T07:16:48.148Z,51936.00
2018-05-07T07:17:48.147Z,57824.00
2018-05-07T07:18:48.148Z,61888.00
2018-05-07T07:19:48.153Z,63520.00
2018-05-07T07:20:48.174Z,61792.00
2018-05-07T07:21:48.211Z,59360.00
2018-05-07T07:22:48.163Z,58560.00
2018-05-07T07:23:48.179Z,58624.00
2018-05-07T07:24:48.174Z,60416.00
2018-05-07T07:25:48.183Z,58752.00
2018-05-07T07:26:48.186Z,62304.00
2018-05-07T07:27:48.199Z,63968.00
2018-05-07T07:28:48.199Z,67872.00
2018-05-07T07:29:48.210Z,69472.00
2018-05-07T07:30:48.213Z,69408.00
2018-05-07T07:31:48.229Z,64544.00
2018-05-07T07:32:48.227Z,63776.00
2018-05-07T07:33:48.303Z,65408.00
2018-05-07T07:34:48.264Z,59648.00
2018-05-07T07:35:48.257Z,59104.00
2018-05-07T07:36:48.262Z,68704.00
2018-05-07T07:37:48.266Z,73312.00
2018-05-07T07:38:48.280Z,71008.00
2018-05-07T07:39:48.284Z,68704.00
2018-05-07T07:40:48.292Z,68096.00
2018-05-07T07:41:48.306Z,72416.00
2018-05-07T07:42:48.307Z,71392.00
2018-05-07T07:43:48.314Z,74272.00
2018-05-07T07:44:48.342Z,70816.00
2018-05-07T07:45:48.356Z,67104.00
2018-05-07T07:46:48.345Z,65120.00
2018-05-07T07:47:48.370Z,64704.00
2018-05-07T07:48:48.384Z,68640.00
2018-05-07T07:49:48.381Z,64032.00
2018-05-07T07:50:48.392Z,62016.00
2018-05-07T07:51:48.403Z,65056.00
2018-05-07T07:52:48.412Z,66112.00
2018-05-07T07:53:48.442Z,61312.00
2018-05-07T07:54:48.429Z,59360.00
2018-05-07T07:55:48.437Z,60032.00
2018-05-07T07:56:48.456Z,62464.00
2018-05-07T07:57:48.466Z,65920.00
2018-05-07T07:58:48.472Z,63008.00
2018-05-07T07:59:48.487Z,58464.00
2018-05-07T08:00:48.502Z,61312.00
2018-05-07T08:01:48.506Z,63200.00
2018-05-07T08:02:48.514Z,63232.00
2018-05-07T08:03:48.533Z,61024.00
2018-05-07T08:04:48.551Z,60288.00
2018-05-07T08:05:48.563Z,54272.00
2018-05-07T08:06:48.580Z,62816.00
2018-05-07T08:07:48.592Z,70720.00
2018-05-07T08:08:48.594Z,64864.00
2018-05-07T08:09:48.603Z,63488.00
2018-05-07T08:10:48.617Z,65856.00
2018-05-07T08:11:48.630Z,63808.00
2018-05-07T08:12:48.644Z,62752.00
2018-05-07T08:13:48.642Z,63712.00
2018-05-07T08:14:48.660Z,63104.00
2018-05-07T08:15:48.701Z,66272.00
2018-05-07T08:16:48.696Z,68608.00
2018-05-07T08:17:48.710Z,69472.00
2018-05-07T08:18:48.716Z,73440.00
2018-05-07T08:19:48.734Z,71648.00
2018-05-07T08:20:49.414Z,66112.00
2018-05-07T08:21:48.767Z,66752.00
2018-05-07T08:22:48.774Z,65376.00
2018-05-07T08:23:48.782Z,65056.00
2018-05-07T08:24:48.837Z,69856.00
2018-05-07T08:25:48.818Z,71232.00
2018-05-07T08:26:48.837Z,67776.00
2018-05-07T08:27:48.835Z,68960.00
2018-05-07T08:28:48.845Z,67040.00
2018-05-07T08:29:48.857Z,66080.00
2018-05-07T08:30:48.862Z,61600.00
2018-05-07T08:31:48.883Z,66752.00
2018-05-07T08:32:48.899Z,65088.00
2018-05-07T08:33:48.913Z,62560.00
2018-05-07T08:34:49.849Z,64000.00
2018-05-07T08:35:49.850Z,62912.00
2018-05-07T08:36:49.856Z,64512.00
2018-05-07T08:37:48.968Z,62560.00
2018-05-07T08:38:48.971Z,62240.00
2018-05-07T08:39:49.012Z,67808.00
2018-05-07T08:40:49.004Z,70016.00
2018-05-07T08:41:49.027Z,72608.00
2018-05-07T08:42:49.028Z,73888.00
2018-05-07T08:43:49.040Z,71968.00
2018-05-07T08:44:49.053Z,71616.00
2018-05-07T08:45:49.064Z,66336.00
2018-05-07T08:46:49.086Z,71232.00
2018-05-07T08:47:49.099Z,77120.00
2018-05-07T08:48:49.115Z,78176.00
2018-05-07T08:49:49.141Z,72576.00
2018-05-07T08:50:49.160Z,68960.00
2018-05-07T08:51:49.157Z,72352.00
2018-05-07T08:52:49.223Z,73728.00
2018-05-07T08:53:49.202Z,70304.00
2018-05-07T08:54:49.202Z,71296.00
2018-05-07T08:55:49.222Z,68256.00
2018-05-07T08:56:49.240Z,70528.00
2018-05-07T08:57:49.239Z,70624.00
2018-05-07T08:58:49.257Z,67648.00
2018-05-07T08:59:49.279Z,66720.00
2018-05-07T09:00:49.292Z,69728.00
2018-05-07T09:01:49.307Z,65760.00
2018-05-07T09:02:49.321Z,65792.00
2018-05-07T09:03:49.336Z,68512.00
2018-05-07T09:04:49.348Z,68512.00
2018-05-07T09:05:49.374Z,65248.00
2018-05-07T09:06:49.385Z,67904.00
2018-05-07T09:07:49.397Z,70464.00
2018-05-07T09:08:49.413Z,65728.00
2018-05-07T09:09:49.416Z,66016.00
2018-05-07T09:10:49.436Z,64992.00
2018-05-07T09:11:49.446Z,62816.00
2018-05-07T09:12:49.469Z,62112.00
2018-05-07T09:13:49.481Z,60896.00
2018-05-07T09:14:49.501Z,59936.00
2018-05-07T09:15:49.515Z,61856.00
2018-05-07T09:16:49.531Z,59872.00
2018-05-07T09:17:49.543Z,58336.00
2018-05-07T09:18:49.557Z,62144.00
2018-05-07T09:19:49.573Z,64416.00
2018-05-07T09:20:49.590Z,62976.00
2018-05-07T09:21:49.607Z,56864.00
2018-05-07T09:22:49.624Z,56288.00
2018-05-07T09:23:49.630Z,57888.00
2018-05-07T09:24:49.741Z,60544.00
2018-05-07T09:25:49.668Z,57728.00
2018-05-07T09:26:49.681Z,60192.00
2018-05-07T09:27:49.693Z,58976.00
2018-05-07T09:28:49.710Z,58272.00
2018-05-07T09:29:49.726Z,63744.00
2018-05-07T09:30:49.739Z,63840.00
2018-05-07T09:31:49.755Z,62304.00
2018-05-07T09:32:49.768Z,62272.00
2018-05-07T09:33:49.787Z,62496.00
2018-05-07T09:34:49.803Z,62752.00
2018-05-07T09:35:49.814Z,57152.00
2018-05-07T09:36:49.833Z,53344.00
2018-05-07T09:37:49.848Z,52768.00
2018-05-07T09:38:49.864Z,59712.00
2018-05-07T09:39:49.881Z,61920.00
2018-05-07T09:40:49.894Z,60000.00
2018-05-07T09:41:49.908Z,64672.00
2018-05-07T09:42:49.936Z,61472.00
2018-05-07T09:43:49.933Z,59200.00
2018-05-07T09:44:49.956Z,58176.00
2018-05-07T09:45:49.974Z,57472.00
2018-05-07T09:46:49.987Z,58432.00
2018-05-07T09:47:50.003Z,61504.00
2018-05-07T09:48:50.046Z,62720.00
2018-05-07T09:49:50.037Z,60608.00
2018-05-07T09:50:50.050Z,61344.00
2018-05-07T09:51:50.072Z,62464.00
2018-05-07T09:52:50.084Z,64544.00
2018-05-07T09:53:50.101Z,64608.00
2018-05-07T09:54:50.121Z,58656.00
2018-05-07T09:55:50.151Z,54976.00
2018-05-07T09:56:50.253Z,54272.00
2018-05-07T09:57:50.162Z,55200.00
2018-05-07T09:58:50.179Z,54368.00
2018-05-07T09:59:50.199Z,54688.00
2018-05-07T10:00:50.213Z,56960.00
2018-05-07T10:01:50.239Z,56256.00
2018-05-07T10:02:50.243Z,58368.00
2018-05-07T10:03:50.263Z,60768.00
2018-05-07T10:04:50.302Z,57184.00
2018-05-07T10:05:50.283Z,56768.00
2018-05-07T10:06:50.306Z,57600.00
2018-05-07T10:07:50.328Z,58144.00
2018-05-07T10:08:50.342Z,58752.00
2018-05-07T10:09:50.360Z,62624.00
2018-05-07T10:10:50.373Z,65504.00
2018-05-07T10:11:50.390Z,61216.00
2018-05-07T10:12:50.398Z,60832.00
2018-05-07T10:13:50.419Z,60256.00
2018-05-07T10:14:50.438Z,56640.00
2018-05-07T10:15:50.454Z,56928.00
2018-05-07T10:16:50.469Z,58688.00
2018-05-07T10:17:50.487Z,58880.00
2018-05-07T10:18:50.503Z,57088.00
2018-05-07T10:19:50.517Z,54304.00
2018-05-07T10:20:50.535Z,54144.00
2018-05-07T10:21:50.553Z,55136.00
2018-05-07T10:22:50.562Z,56416.00
2018-05-07T10:23:50.576Z,57312.00
2018-05-07T10:24:50.599Z,56352.00
2018-05-07T10:25:50.625Z,58528.00
2018-05-07T10:26:50.631Z,58240.00
2018-05-07T10:27:50.645Z,57024.00
2018-05-07T10:28:50.663Z,59744.00
2018-05-07T10:29:50.685Z,60000.00
2018-05-07T10:30:50.694Z,57600.00
2018-05-07T10:31:50.744Z,59232.00
2018-05-07T10:32:50.743Z,58624.00
2018-05-07T10:33:50.736Z,54656.00
2018-05-07T10:34:50.768Z,57088.00
2018-05-07T10:35:50.782Z,58240.00
2018-05-07T10:36:50.792Z,57984.00
2018-05-07T10:37:50.856Z,56800.00
2018-05-07T10:38:50.825Z,58432.00
2018-05-07T10:39:50.837Z,59680.00
2018-05-07T10:40:50.867Z,55712.00
2018-05-07T10:41:50.878Z,54304.00
2018-05-07T10:42:50.911Z,56192.00
2018-05-07T10:43:50.918Z,59648.00
2018-05-07T10:44:50.918Z,60352.00
2018-05-07T10:45:50.939Z,62912.00
2018-05-07T10:46:50.948Z,63904.00
2018-05-07T10:47:50.963Z,61024.00
2018-05-07T10:48:50.977Z,58752.00
2018-05-07T10:49:51.009Z,56928.00
2018-05-07T10:50:51.010Z,56384.00
2018-05-07T10:51:51.029Z,55296.00
2018-05-07T10:52:51.050Z,54112.00
2018-05-07T10:53:51.060Z,56384.00
2018-05-07T10:54:51.079Z,58432.00
2018-05-07T10:55:51.091Z,57088.00
2018-05-07T10:56:51.099Z,56896.00
2018-05-07T10:57:51.116Z,60128.00
2018-05-07T10:58:51.128Z,61632.00
2018-05-07T10:59:51.156Z,60192.00
2018-05-07T11:00:51.174Z,60576.00
2018-05-07T11:01:51.193Z,60960.00
2018-05-07T11:02:51.202Z,59424.00
2018-05-07T11:03:51.231Z,59840.00
2018-05-07T11:04:51.247Z,60800.00
2018-05-07T11:05:51.271Z,59232.00
2018-05-07T11:06:51.311Z,55616.00
2018-05-07T11:07:51.279Z,55104.00
2018-05-07T11:08:51.289Z,59232.00
2018-05-07T11:09:51.316Z,59968.00
2018-05-07T11:10:51.339Z,56416.00
2018-05-07T11:11:51.348Z,57472.00
2018-05-07T11:12:51.361Z,61280.00
2018-05-07T11:13:51.377Z,59168.00
2018-05-07T11:14:51.397Z,58496.00
2018-05-07T11:15:51.410Z,58976.00
2018-05-07T11:16:51.448Z,61728.00
2018-05-07T11:17:51.448Z,61312.00
2018-05-07T11:18:51.477Z,60704.00
2018-05-07T11:19:51.578Z,61664.00
2018-05-07T11:20:51.489Z,61568.00
2018-05-07T11:21:51.507Z,60000.00
2018-05-07T11:22:51.517Z,60384.00
2018-05-07T11:23:51.536Z,61472.00
2018-05-07T11:24:51.551Z,62624.00
2018-05-07T11:25:51.567Z,61792.00
2018-05-07T11:26:51.582Z,59488.00
2018-05-07T11:27:51.609Z,62688.00
2018-05-07T11:28:51.620Z,65408.00
2018-05-07T11:29:51.629Z,62976.00
2018-05-07T11:30:51.649Z,58912.00
2018-05-07T11:31:51.660Z,60960.00
2018-05-07T11:32:51.677Z,66656.00
2018-05-07T11:33:51.706Z,69344.00
2018-05-07T11:34:51.708Z,66112.00
2018-05-07T11:35:51.723Z,63936.00
2018-05-07T11:36:51.764Z,64224.00
2018-05-07T11:37:51.754Z,64416.00
2018-05-07T11:38:51.776Z,65664.00
2018-05-07T11:39:51.804Z,64096.00
2018-05-07T11:40:51.797Z,64704.00
2018-05-07T11:41:51.818Z,64800.00
2018-05-07T11:42:51.832Z,62368.00
2018-05-07T11:43:51.850Z,61376.00
2018-05-07T11:44:51.867Z,63552.00
2018-05-07T11:45:51.885Z,64544.00
2018-05-07T11:46:51.895Z,64960.00
2018-05-07T11:47:51.926Z,66688.00
2018-05-07T11:48:51.925Z,65056.00
2018-05-07T11:49:51.945Z,65888.00
2018-05-07T11:50:51.959Z,66432.00
2018-05-07T11:51:51.974Z,64768.00
2018-05-07T11:52:51.998Z,63584.00
2018-05-07T11:53:52.011Z,63648.00
2018-05-07T11:54:52.050Z,61408.00
2018-05-07T11:55:52.941Z,58048.00
2018-05-07T11:56:52.061Z,60928.00
2018-05-07T11:57:52.070Z,66912.00
2018-05-07T11:58:52.860Z,69280.00
2018-05-07T11:59:52.865Z,69792.00
2018-05-07T12:00:52.864Z,70944.00
2018-05-07T12:01:52.134Z,69120.00
2018-05-07T12:02:52.145Z,67360.00
2018-05-07T12:03:52.168Z,66848.00
2018-05-07T12:04:52.184Z,67872.00
2018-05-07T12:05:52.191Z,67424.00
2018-05-07T12:06:52.206Z,67488.00
2018-05-07T12:07:52.954Z,72032.00
2018-05-07T12:08:52.236Z,75040.00
2018-05-07T12:09:52.255Z,74272.00
2018-05-07T12:10:52.261Z,69568.00
2018-05-07T12:11:52.302Z,63136.00
2018-05-07T12:12:52.295Z,57088.00
2018-05-07T12:13:52.319Z,62144.00
2018-05-07T12:14:52.352Z,70496.00
2018-05-07T12:15:52.493Z,72928.00
2018-05-07T12:16:52.938Z,72640.00
2018-05-07T12:17:52.364Z,74432.00
2018-05-07T12:18:52.448Z,77056.00
2018-05-07T12:19:52.940Z,74240.00
2018-05-07T12:20:52.936Z,73728.00
2018-05-07T12:21:52.434Z,79776.00
2018-05-07T12:22:52.455Z,82144.00
2018-05-07T12:23:52.463Z,82656.00
2018-05-07T12:24:52.514Z,79968.00
2018-05-07T12:25:53.442Z,73472.00
2018-05-07T12:26:53.453Z,46112.00
2018-05-07T12:27:53.446Z,12656.00
2018-05-07T12:28:53.436Z,9216.00
2018-05-07T12:29:52.536Z,8832.00
2018-05-07T12:30:52.610Z,8500.00
2018-05-07T12:31:52.678Z,8356.00
2018-05-07T12:32:53.459Z,8292.00
2018-05-07T12:33:52.588Z,8216.00
2018-05-07T12:34:52.622Z,8216.00
2018-05-07T12:35:53.441Z,8216.00
2018-05-07T12:36:52.638Z,8188.00
2018-05-07T12:37:52.637Z,8120.00
2018-05-07T12:38:52.632Z,8088.00
2018-05-07T12:39:52.646Z,8048.00
2018-05-07T12:40:52.640Z,8012.00
2018-05-07T12:41:52.649Z,8076.00
2018-05-07T12:42:52.655Z,8072.00
2018-05-07T12:43:52.660Z,8028.00
2018-05-07T12:44:52.667Z,7948.00
2018-05-07T12:45:52.675Z,7864.00
2018-05-07T12:46:52.688Z,7828.00
2018-05-07T12:47:52.690Z,7880.00
2018-05-07T12:48:52.687Z,7836.00
2018-05-07T12:49:52.691Z,7780.00
2018-05-07T12:50:52.697Z,7696.00
2018-05-07T12:51:52.702Z,7680.00
2018-05-07T12:52:52.707Z,7668.00
2018-05-07T12:53:52.710Z,7672.00
2018-05-07T12:54:52.714Z,7644.00
2018-05-07T12:55:52.732Z,7652.00
2018-05-07T12:56:52.719Z,7612.00
2018-05-07T12:57:52.718Z,7556.00
2018-05-07T12:58:52.717Z,7524.00
2018-05-07T12:59:52.799Z,7488.00
2018-05-07T13:00:52.732Z,7452.00
2018-05-07T13:01:52.731Z,7412.00
2018-05-07T13:02:52.735Z,7408.00
2018-05-07T13:03:52.739Z,7400.00
2018-05-07T13:04:52.746Z,7356.00
2018-05-07T13:05:52.809Z,7332.00
2018-05-07T13:06:52.738Z,7316.00
2018-05-07T13:07:52.751Z,7280.00
2018-05-07T13:08:52.748Z,7272.00
2018-05-07T13:09:52.753Z,7240.00
2018-05-07T13:10:52.752Z,7224.00
2018-05-07T13:11:52.756Z,7224.00
2018-05-07T13:12:52.761Z,7272.00
2018-05-07T13:13:52.757Z,7232.00
2018-05-07T13:14:52.759Z,7164.00
2018-05-07T13:15:52.772Z,7132.00
2018-05-07T13:16:52.770Z,7124.00
2018-05-07T13:17:52.767Z,7124.00
2018-05-07T13:18:52.765Z,7148.00
2018-05-07T13:19:52.759Z,7156.00
2018-05-07T13:20:52.779Z,7176.00
2018-05-07T13:21:52.774Z,7156.00
2018-05-07T13:22:52.772Z,7120.00
2018-05-07T13:23:52.776Z,7112.00
2018-05-07T13:24:52.832Z,7112.00
2018-05-07T13:25:52.791Z,7156.00
2018-05-07T13:26:52.781Z,7160.00
2018-05-07T13:27:52.784Z,7132.00
2018-05-07T13:28:52.780Z,7080.00
2018-05-07T13:29:52.791Z,7012.00
2018-05-07T13:30:52.789Z,6972.00
2018-05-07T13:31:52.791Z,6968.00
2018-05-07T13:32:52.789Z,6984.00
2018-05-07T13:33:52.782Z,7052.00
2018-05-07T13:34:52.795Z,7052.00
2018-05-07T13:35:52.793Z,7064.00
2018-05-07T13:36:52.848Z,7080.00
2018-05-07T13:37:52.795Z,7132.00
2018-05-07T13:38:52.798Z,7136.00
2018-05-07T13:39:52.799Z,7132.00
2018-05-07T13:40:52.814Z,7064.00
2018-05-07T13:41:52.807Z,7060.00
2018-05-07T13:42:52.792Z,7100.00
2018-05-07T13:43:52.802Z,7132.00
2018-05-07T13:44:52.806Z,7196.00
2018-05-07T13:45:52.812Z,7280.00
2018-05-07T13:46:52.809Z,7364.00
2018-05-07T13:47:52.817Z,7444.00
2018-05-07T13:48:52.810Z,7472.00
2018-05-07T13:49:52.816Z,7444.00
2018-05-07T13:50:52.815Z,7604.00
2018-05-07T13:51:52.817Z,7828.00
2018-05-07T13:52:52.818Z,8144.00
2018-05-07T13:53:52.817Z,8512.00
2018-05-07T13:54:52.831Z,8856.00
2018-05-07T13:55:52.824Z,9292.00
2018-05-07T13:56:52.872Z,9668.00
2018-05-07T13:57:52.820Z,9956.00
2018-05-07T13:58:52.826Z,10160.00